Aeroporto :
LOGIN :

Iscrizione | Disclaimer

   EN    FR    IT 

 










Sommario :    VFR   VFR Marginale   IFR   IFR Intensivo   IFR Molto Intensivo
Visibilità : 
Base nubi : 
>= 8 km
>= 3000ft
5 / 8 km
1000 / 3000 ft
1500m / 5 km
500 / 1000 ft
800 / 1500m
200 / 500 ft
< 800m
< 200 ft
Simboli :   Temporali  Nebbia  Neve Forte  Precipitazioni Forti  Vento > 20 kt
SIGMETs :   Varie  Temporali  Ghiacco  Turbolenza  Onda orograficha  Ceneri Vulcaniche






- Altitudine del aeroporto : 20 ft


EBFN - Koksijde

ULTIMO METAR :
  • 041555Z AUTO 14008KT 9999 OVC056/// 16/03 Q1021 BLU

METARs OBSOLETI :
  • 041525Z AUTO 16008KT 9999 BKN053/// 15/03 Q1021 BLU
  • 041455Z AUTO 14008KT 9999 BKN052/// 16/03 Q1021 BLU
  • 041425Z AUTO 16008KT 9999 BKN053/// 15/03 Q1021 BLU
  • 041355Z AUTO 17007KT 9999 SCT048/// 15/04 Q1021 BLU
  • 041325Z AUTO 17007KT 9999 SCT046/// 15/03 Q1022 BLU

TAF TAF EBFN
Valido dal 04 a 13 ore il 04 a 22 ore UTC


041141Z 0413/0422 16009KT 9999 SCT035 SCT200



MetMap, La meteo Aeronautica in un colpo d'occhio ! - Copyright ORBIFLY Dicembre 2007 - Disclaimer

ORBIFLY MET'MAP TEAM :

Programmazione e sviluppo : Alexandra Zaïnal
Concezione : Baudouin d'Aumeries
Aiuto per la programmazione : Marc-Olivier Méhu
Supporto tecnico e logistico : Manuel Goepfert
Aiuto per la traduzione : Arnaldo La Scala

Contatto : metmap@orbifly.com




FONTI E CREDITI :

   NOAA